Time;durP1;ratioP1;P1;durP2;ratioP2;P2;SDS_P1;SDS_P2;PMS_P1;PMS_P2;Temp;Humidity;BMP_temperature;BMP_pressure;BME280_temperature;BME280_humidity;BME280_pressure;Samples;Min_cycle;Max_cycle;Signal;HPM_P1;HPM_P2
2023/04/14 00:01:45;;;;;;;6.80;5.80;;;;;;;;;;107630;283;38543;-29
2023/04/14 00:04:20;;;;;;;7.80;6.00;;;;;;;;;;107582;285;46547;-29
2023/04/14 00:06:57;;;;;;;7.10;5.60;;;;;;;;;;106994;285;894713;-29
2023/04/14 00:09:31;;;;;;;7.10;5.70;;;;;;;;;;107640;283;42136;-28
2023/04/14 00:12:06;;;;;;;7.30;5.80;;;;;;;;;;107647;285;38796;-28
2023/04/14 00:14:41;;;;;;;7.50;5.90;;;;;;;;;;107728;285;46740;-28
2023/04/14 00:17:16;;;;;;;7.00;5.40;;;;;;;;;;107652;285;43029;-28
2023/04/14 00:19:55;;;;;;;7.00;5.20;;;;;;;;;;107656;277;42013;-28
2023/04/14 00:22:30;;;;;;;7.20;5.40;;;;;;;;;;107629;285;38858;-28
2023/04/14 00:25:06;;;;;;;6.80;5.70;;;;;;;;;;107616;285;45686;-28
2023/04/14 00:27:40;;;;;;;6.70;5.40;;;;;;;;;;107654;277;42865;-28
2023/04/14 00:30:15;;;;;;;6.60;5.30;;;;;;;;;;107621;283;43556;-29
2023/04/14 00:32:49;;;;;;;6.80;5.20;;;;;;;;;;107608;285;38802;-29
2023/04/14 00:35:26;;;;;;;6.00;4.80;;;;;;;;;;107615;285;46033;-29
2023/04/14 00:38:02;;;;;;;6.70;5.00;;;;;;;;;;107666;285;42902;-29
2023/04/14 00:40:36;;;;;;;6.70;5.20;;;;;;;;;;107608;282;42411;-29
2023/04/14 00:43:11;;;;;;;6.30;5.00;;;;;;;;;;107596;283;38554;-29
2023/04/14 00:45:51;;;;;;;5.90;4.90;;;;;;;;;;107668;285;39812;-29
2023/04/14 00:48:30;;;;;;;6.20;4.80;;;;;;;;;;107640;285;42819;-29
2023/04/14 00:51:08;;;;;;;6.10;4.70;;;;;;;;;;107632;285;42146;-29
2023/04/14 00:53:45;;;;;;;6.30;5.00;;;;;;;;;;107640;283;38901;-28
2023/04/14 00:56:20;;;;;;;6.00;4.60;;;;;;;;;;107517;285;192997;-28
2023/04/14 00:58:55;;;;;;;6.30;5.00;;;;;;;;;;107598;285;42895;-28
2023/04/14 01:01:32;;;;;;;6.40;4.80;;;;;;;;;;107617;283;42158;-28
2023/04/14 01:04:09;;;;;;;6.40;5.10;;;;;;;;;;107611;282;38900;-28
2023/04/14 01:06:44;;;;;;;5.60;4.60;;;;;;;;;;107609;285;39830;-28
2023/04/14 01:09:20;;;;;;;6.00;4.80;;;;;;;;;;107636;282;43886;-29
2023/04/14 01:12:13;;;;;;;6.20;4.70;;;;;;;;;;107536;283;42295;-29
2023/04/14 01:14:57;;;;;;;6.10;4.50;;;;;;;;;;107569;283;38821;-29
2023/04/14 01:17:55;;;;;;;6.30;4.60;;;;;;;;;;107626;283;40121;-29
2023/04/14 01:20:35;;;;;;;6.30;4.60;;;;;;;;;;107621;277;43090;-29
2023/04/14 01:23:13;;;;;;;6.10;4.50;;;;;;;;;;107608;283;42192;-29
2023/04/14 01:26:18;;;;;;;5.60;4.50;;;;;;;;;;107619;285;38771;-29
2023/04/14 01:29:41;;;;;;;6.20;4.80;;;;;;;;;;107635;283;39753;-29
2023/04/14 01:32:22;;;;;;;5.90;4.40;;;;;;;;;;107645;285;42894;-29
2023/04/14 01:35:04;;;;;;;6.20;4.50;;;;;;;;;;107603;277;42142;-29
2023/04/14 01:37:46;;;;;;;5.50;4.10;;;;;;;;;;107635;277;38749;-29
2023/04/14 01:40:26;;;;;;;5.60;4.30;;;;;;;;;;107115;279;532181;-29
2023/04/14 01:43:06;;;;;;;5.40;4.20;;;;;;;;;;107639;285;44054;-29
2023/04/14 01:45:46;;;;;;;6.10;4.40;;;;;;;;;;107589;282;43380;-29
2023/04/14 01:48:25;;;;;;;6.20;4.00;;;;;;;;;;107627;285;39889;-29
2023/04/14 01:51:01;;;;;;;5.70;4.20;;;;;;;;;;107635;283;39985;-29
2023/04/14 01:53:38;;;;;;;5.70;4.10;;;;;;;;;;107594;285;44123;-29
2023/04/14 01:56:17;;;;;;;5.80;3.90;;;;;;;;;;107647;283;42133;-29
2023/04/14 01:58:55;;;;;;;5.90;4.20;;;;;;;;;;107640;277;38797;-29
2023/04/14 02:01:31;;;;;;;5.40;4.10;;;;;;;;;;107621;285;39694;-29
2023/04/14 02:04:07;;;;;;;5.60;4.10;;;;;;;;;;107657;283;42893;-29
2023/04/14 02:06:42;;;;;;;6.20;4.20;;;;;;;;;;107616;284;42145;-29
2023/04/14 02:09:16;;;;;;;5.40;3.90;;;;;;;;;;107615;285;41001;-29
2023/04/14 02:11:53;;;;;;;5.80;4.10;;;;;;;;;;107646;277;39751;-29
2023/04/14 02:14:28;;;;;;;5.60;4.20;;;;;;;;;;107636;283;42642;-29
2023/04/14 02:17:06;;;;;;;6.00;4.40;;;;;;;;;;107584;277;43251;-29
2023/04/14 02:19:41;;;;;;;5.70;4.20;;;;;;;;;;107657;285;39835;-29
2023/04/14 02:22:16;;;;;;;5.80;4.30;;;;;;;;;;107649;290;40869;-29
2023/04/14 02:24:54;;;;;;;5.10;4.00;;;;;;;;;;107639;282;42860;-29
2023/04/14 02:27:42;;;;;;;5.70;4.30;;;;;;;;;;107602;285;50068;-29
2023/04/14 02:30:19;;;;;;;5.50;4.30;;;;;;;;;;107639;282;38923;-29
2023/04/14 02:33:00;;;;;;;5.50;4.30;;;;;;;;;;107633;277;40825;-29
2023/04/14 02:35:42;;;;;;;5.70;3.90;;;;;;;;;;107597;285;42873;-29
2023/04/14 02:38:22;;;;;;;5.30;3.90;;;;;;;;;;107653;285;42423;-29
2023/04/14 02:40:58;;;;;;;5.80;4.30;;;;;;;;;;107641;285;38743;-29
2023/04/14 02:43:40;;;;;;;5.50;4.20;;;;;;;;;;107601;282;40062;-29
2023/04/14 02:46:16;;;;;;;;;;;;;;;;;;107622;283;42918;-29
2023/04/14 02:48:54;;;;;;;5.70;4.10;;;;;;;;;;107638;285;41886;-29
2023/04/14 02:51:31;;;;;;;5.50;4.20;;;;;;;;;;107633;285;38952;-29
2023/04/14 02:54:10;;;;;;;5.50;3.80;;;;;;;;;;107638;282;40967;-29
2023/04/14 02:56:46;;;;;;;5.00;3.40;;;;;;;;;;107630;281;42930;-29
2023/04/14 02:59:24;;;;;;;5.40;3.80;;;;;;;;;;107621;285;42318;-29
2023/04/14 03:02:03;;;;;;;5.60;3.90;;;;;;;;;;107607;282;38852;-29
2023/04/14 03:04:41;;;;;;;5.80;4.00;;;;;;;;;;107618;283;39708;-29
2023/04/14 03:07:17;;;;;;;5.40;3.80;;;;;;;;;;107583;284;42842;-29
2023/04/14 03:09:55;;;;;;;5.40;3.80;;;;;;;;;;107631;285;42269;-29
2023/04/14 03:12:32;;;;;;;5.30;3.80;;;;;;;;;;107633;285;38853;-29
2023/04/14 03:15:12;;;;;;;5.50;3.90;;;;;;;;;;107669;282;39745;-29
2023/04/14 03:17:46;;;;;;;5.40;3.90;;;;;;;;;;107627;282;42869;-29
2023/04/14 03:20:22;;;;;;;5.30;4.10;;;;;;;;;;107646;282;42148;-29
2023/04/14 03:23:00;;;;;;;5.60;4.30;;;;;;;;;;107667;283;38954;-29
2023/04/14 03:25:39;;;;;;;5.20;3.90;;;;;;;;;;107619;285;39729;-29
2023/04/14 03:28:18;;;;;;;5.50;4.10;;;;;;;;;;106937;285;893139;-29
2023/04/14 03:31:00;;;;;;;5.40;3.70;;;;;;;;;;107623;283;42236;-29
2023/04/14 03:33:36;;;;;;;5.40;4.00;;;;;;;;;;107631;285;40167;-29
2023/04/14 03:36:12;;;;;;;5.70;4.00;;;;;;;;;;107658;285;39878;-29
2023/04/14 03:38:54;;;;;;;5.50;4.00;;;;;;;;;;107607;282;43082;-28
2023/04/14 03:41:30;;;;;;;5.60;3.80;;;;;;;;;;107629;283;42196;-28
2023/04/14 03:44:14;;;;;;;5.40;4.00;;;;;;;;;;107665;283;38671;-28
2023/04/14 03:46:49;;;;;;;5.60;3.70;;;;;;;;;;107631;285;39928;-28
2023/04/14 03:49:27;;;;;;;5.90;3.80;;;;;;;;;;107633;283;49388;-28
2023/04/14 03:52:06;;;;;;;5.10;3.80;;;;;;;;;;107638;285;42165;-28
2023/04/14 03:54:44;;;;;;;5.30;3.60;;;;;;;;;;107667;285;39846;-28
2023/04/14 03:57:22;;;;;;;5.30;3.80;;;;;;;;;;107598;283;39751;-28
2023/04/14 03:59:57;;;;;;;5.20;3.70;;;;;;;;;;107591;283;42902;-28
2023/04/14 04:02:33;;;;;;;5.40;3.70;;;;;;;;;;107648;277;43371;-28
2023/04/14 04:05:11;;;;;;;5.30;3.60;;;;;;;;;;107617;285;38541;-28
2023/04/14 04:07:47;;;;;;;6.00;3.90;;;;;;;;;;107647;285;39775;-28
2023/04/14 04:10:24;;;;;;;6.00;3.70;;;;;;;;;;107611;286;42890;-28
2023/04/14 04:13:03;;;;;;;6.10;3.90;;;;;;;;;;107654;283;42164;-28
2023/04/14 04:15:40;;;;;;;5.20;3.70;;;;;;;;;;107671;285;39044;-28
2023/04/14 04:18:16;;;;;;;5.50;3.70;;;;;;;;;;107625;283;41169;-28
2023/04/14 04:20:55;;;;;;;5.30;3.70;;;;;;;;;;107683;285;42921;-29
2023/04/14 04:23:34;;;;;;;5.20;3.50;;;;;;;;;;107519;286;42149;-29
2023/04/14 04:26:11;;;;;;;5.30;3.60;;;;;;;;;;107605;283;38791;-29
2023/04/14 04:28:47;;;;;;;5.20;3.70;;;;;;;;;;107610;283;41266;-29
2023/04/14 04:31:24;;;;;;;5.10;3.60;;;;;;;;;;107635;285;42907;-29
2023/04/14 04:34:02;;;;;;;5.40;3.60;;;;;;;;;;107608;283;43696;-29
2023/04/14 04:36:39;;;;;;;5.10;3.50;;;;;;;;;;107619;283;39476;-29
2023/04/14 04:39:13;;;;;;;5.50;3.70;;;;;;;;;;107473;283;175624;-29
2023/04/14 04:41:50;;;;;;;5.30;3.50;;;;;;;;;;107623;285;44299;-29
2023/04/14 04:44:26;;;;;;;5.20;3.80;;;;;;;;;;107634;285;43184;-29
2023/04/14 04:47:03;;;;;;;5.90;3.80;;;;;;;;;;107644;277;38830;-29
2023/04/14 04:49:38;;;;;;;4.80;3.30;;;;;;;;;;107598;283;40925;-29
2023/04/14 04:52:14;;;;;;;5.40;3.90;;;;;;;;;;107627;285;44000;-29
2023/04/14 04:54:51;;;;;;;5.30;3.70;;;;;;;;;;107640;285;42193;-29
2023/04/14 04:57:26;;;;;;;5.10;3.60;;;;;;;;;;107624;285;38840;-29
2023/04/14 05:00:02;;;;;;;5.90;3.80;;;;;;;;;;107634;282;41970;-29
2023/04/14 05:02:38;;;;;;;5.70;4.00;;;;;;;;;;107605;284;43051;-29
2023/04/14 05:05:13;;;;;;;5.50;3.90;;;;;;;;;;107649;277;42199;-29
2023/04/14 05:07:48;;;;;;;5.70;3.90;;;;;;;;;;107673;283;38810;-29
2023/04/14 05:10:22;;;;;;;5.50;3.50;;;;;;;;;;107597;277;40881;-29
2023/04/14 05:13:00;;;;;;;5.10;3.50;;;;;;;;;;107515;285;175661;-29
2023/04/14 05:15:35;;;;;;;5.60;3.90;;;;;;;;;;107644;277;44373;-29
2023/04/14 05:18:09;;;;;;;5.80;3.80;;;;;;;;;;107644;282;39241;-29
2023/04/14 05:20:44;;;;;;;5.60;4.00;;;;;;;;;;107561;285;39709;-29
2023/04/14 05:23:21;;;;;;;5.60;3.90;;;;;;;;;;107632;285;42971;-29
2023/04/14 05:26:00;;;;;;;5.80;3.60;;;;;;;;;;107605;277;42130;-29
2023/04/14 05:28:54;;;;;;;5.30;3.80;;;;;;;;;;107605;285;38785;-29
2023/04/14 05:31:27;;;;;;;6.20;4.00;;;;;;;;;;107624;283;48442;-28
2023/04/14 05:34:03;;;;;;;6.30;3.90;;;;;;;;;;107626;285;42959;-28
2023/04/14 05:36:36;;;;;;;5.70;3.90;;;;;;;;;;107641;285;42316;-28
2023/04/14 05:39:12;;;;;;;6.10;4.00;;;;;;;;;;107596;277;38971;-28
2023/04/14 05:41:47;;;;;;;5.70;3.80;;;;;;;;;;107652;285;46122;-28
2023/04/14 05:44:23;;;;;;;6.60;4.20;;;;;;;;;;107632;277;42950;-28
2023/04/14 05:46:59;;;;;;;6.50;4.30;;;;;;;;;;107652;283;42448;-28
2023/04/14 05:49:35;;;;;;;5.90;4.10;;;;;;;;;;107571;285;41758;-29
2023/04/14 05:52:09;;;;;;;5.80;4.50;;;;;;;;;;107594;283;40851;-29
2023/04/14 05:54:45;;;;;;;6.60;4.50;;;;;;;;;;107578;283;43098;-29
2023/04/14 05:57:20;;;;;;;6.10;4.50;;;;;;;;;;107597;286;42470;-29
2023/04/14 05:59:55;;;;;;;6.30;4.80;;;;;;;;;;107566;286;38543;-29
2023/04/14 06:02:31;;;;;;;6.20;4.40;;;;;;;;;;107676;283;39722;-29
2023/04/14 06:05:07;;;;;;;5.90;4.60;;;;;;;;;;107594;283;44116;-29
2023/04/14 06:07:43;;;;;;;6.80;4.90;;;;;;;;;;107621;286;44295;-29
2023/04/14 06:10:19;;;;;;;6.30;4.70;;;;;;;;;;107518;283;39244;-29
2023/04/14 06:12:54;;;;;;;6.90;5.00;;;;;;;;;;107600;283;39700;-29
2023/04/14 06:15:29;;;;;;;6.60;4.80;;;;;;;;;;107596;283;42627;-29
2023/04/14 06:18:03;;;;;;;7.30;5.20;;;;;;;;;;107593;283;42427;-29
2023/04/14 06:20:39;;;;;;;7.00;4.80;;;;;;;;;;107551;286;39915;-29
2023/04/14 06:23:16;;;;;;;6.40;5.20;;;;;;;;;;107586;286;39846;-29
2023/04/14 06:25:51;;;;;;;7.30;5.30;;;;;;;;;;107598;286;42904;-29
2023/04/14 06:28:26;;;;;;;7.50;5.40;;;;;;;;;;107630;283;42164;-28
2023/04/14 06:31:00;;;;;;;6.40;5.00;;;;;;;;;;107533;284;38915;-28
2023/04/14 06:33:34;;;;;;;6.80;4.90;;;;;;;;;;107480;286;39786;-28
2023/04/14 06:36:10;;;;;;;7.00;4.80;;;;;;;;;;107557;285;42943;-28
2023/04/14 06:38:45;;;;;;;6.30;4.80;;;;;;;;;;107564;277;42158;-28
2023/04/14 06:41:19;;;;;;;6.40;5.00;;;;;;;;;;107532;283;40010;-28
2023/04/14 06:43:54;;;;;;;7.10;5.30;;;;;;;;;;107591;285;39885;-28
2023/04/14 06:46:34;;;;;;;6.90;5.20;;;;;;;;;;107570;285;43029;-28
2023/04/14 06:49:10;;;;;;;6.60;5.30;;;;;;;;;;107557;286;42206;-28
2023/04/14 06:51:46;;;;;;;6.80;5.30;;;;;;;;;;107608;283;38958;-28
2023/04/14 06:54:22;;;;;;;6.90;5.30;;;;;;;;;;107608;285;39956;-28
2023/04/14 06:56:57;;;;;;;7.40;5.30;;;;;;;;;;107681;285;44939;-28
2023/04/14 06:59:35;;;;;;;7.60;5.50;;;;;;;;;;107638;285;42268;-30
2023/04/14 07:02:12;;;;;;;7.10;5.50;;;;;;;;;;107605;282;38883;-30
2023/04/14 07:04:47;;;;;;;7.20;5.50;;;;;;;;;;107636;285;40087;-30
2023/04/14 07:07:23;;;;;;;7.00;5.60;;;;;;;;;;107634;286;42841;-30
2023/04/14 07:09:58;;;;;;;7.80;5.60;;;;;;;;;;107552;277;42376;-28
2023/04/14 07:12:32;;;;;;;7.60;5.70;;;;;;;;;;107584;282;38551;-27
2023/04/14 07:15:09;;;;;;;7.10;5.50;;;;;;;;;;107611;277;39737;-28
2023/04/14 07:17:44;;;;;;;6.70;5.30;;;;;;;;;;107629;277;43196;-28
2023/04/14 07:20:18;;;;;;;6.80;5.40;;;;;;;;;;107610;284;42329;-28
2023/04/14 07:22:52;;;;;;;6.20;4.90;;;;;;;;;;107584;284;38776;-28
2023/04/14 07:25:27;;;;;;;6.80;5.20;;;;;;;;;;107614;284;40832;-28
2023/04/14 07:28:02;;;;;;;7.00;5.30;;;;;;;;;;107605;277;44073;-28
2023/04/14 07:30:37;;;;;;;7.00;5.20;;;;;;;;;;107590;277;42274;-28
2023/04/14 07:33:12;;;;;;;6.50;5.20;;;;;;;;;;107587;284;38820;-28
2023/04/14 07:35:46;;;;;;;6.80;5.00;;;;;;;;;;107633;277;41929;-28
2023/04/14 07:38:35;;;;;;;6.80;4.90;;;;;;;;;;107624;277;42875;-28
2023/04/14 07:41:12;;;;;;;7.40;5.40;;;;;;;;;;107640;277;42238;-28
2023/04/14 07:43:48;;;;;;;7.60;5.40;;;;;;;;;;107617;277;38818;-28
2023/04/14 07:46:22;;;;;;;7.60;5.30;;;;;;;;;;107604;277;39767;-28
2023/04/14 07:48:55;;;;;;;7.80;5.40;;;;;;;;;;107627;277;44037;-28
2023/04/14 07:51:29;;;;;;;7.20;5.40;;;;;;;;;;107467;284;175635;-28
2023/04/14 07:54:04;;;;;;;8.00;5.10;;;;;;;;;;107603;276;39956;-29
2023/04/14 07:56:39;;;;;;;7.40;5.30;;;;;;;;;;107596;282;40871;-29
2023/04/14 07:59:13;;;;;;;7.50;5.10;;;;;;;;;;107608;277;43994;-28
2023/04/14 08:01:47;;;;;;;6.30;4.90;;;;;;;;;;107619;282;41862;-28
2023/04/14 08:04:22;;;;;;;6.40;5.00;;;;;;;;;;107747;276;38785;-28
2023/04/14 08:06:56;;;;;;;7.50;5.00;;;;;;;;;;107615;277;39731;-28
2023/04/14 08:09:30;;;;;;;7.30;4.90;;;;;;;;;;107619;277;43999;-28
2023/04/14 08:12:04;;;;;;;7.10;4.90;;;;;;;;;;107632;276;42567;-28
2023/04/14 08:14:38;;;;;;;6.60;5.00;;;;;;;;;;107579;276;44864;-28
2023/04/14 08:17:13;;;;;;;6.80;4.70;;;;;;;;;;107607;276;41046;-29
2023/04/14 08:19:47;;;;;;;7.20;4.70;;;;;;;;;;107643;282;43022;-29
2023/04/14 08:22:24;;;;;;;6.50;4.70;;;;;;;;;;107623;276;44352;-29
2023/04/14 08:25:00;;;;;;;6.30;4.80;;;;;;;;;;107567;282;44833;-29
2023/04/14 08:27:35;;;;;;;7.00;4.60;;;;;;;;;;107643;282;39746;-28
2023/04/14 08:30:12;;;;;;;7.70;4.50;;;;;;;;;;107624;281;42991;-28
2023/04/14 08:32:46;;;;;;;7.00;4.50;;;;;;;;;;107611;277;42186;-28
2023/04/14 08:35:25;;;;;;;6.70;4.40;;;;;;;;;;107629;277;38828;-28
2023/04/14 08:38:15;;;;;;;7.20;4.80;;;;;;;;;;107593;284;39681;-28
2023/04/14 08:40:53;;;;;;;8.10;4.90;;;;;;;;;;107587;284;43022;-29
2023/04/14 08:43:29;;;;;;;7.10;4.70;;;;;;;;;;107601;283;42148;-29
2023/04/14 08:46:06;;;;;;;7.10;4.80;;;;;;;;;;107596;284;38964;-29
2023/04/14 08:48:42;;;;;;;7.60;4.80;;;;;;;;;;107598;285;39736;-29
2023/04/14 08:51:22;;;;;;;7.90;5.00;;;;;;;;;;107626;283;43097;-29
2023/04/14 08:53:59;;;;;;;6.70;5.00;;;;;;;;;;107622;283;42465;-29
2023/04/14 08:56:37;;;;;;;7.40;4.80;;;;;;;;;;107607;283;39913;-29
2023/04/14 08:59:11;;;;;;;6.80;4.80;;;;;;;;;;107603;276;39460;-29
2023/04/14 09:01:46;;;;;;;7.10;4.90;;;;;;;;;;107601;282;42847;-29
2023/04/14 09:04:21;;;;;;;8.10;4.90;;;;;;;;;;107560;277;42327;-29
2023/04/14 09:06:55;;;;;;;7.20;5.10;;;;;;;;;;107651;283;38825;-29
2023/04/14 09:09:30;;;;;;;6.50;4.80;;;;;;;;;;107635;282;39859;-28
2023/04/14 09:12:05;;;;;;;8.10;5.00;;;;;;;;;;107616;284;42946;-29
2023/04/14 09:14:39;;;;;;;9.60;6.50;;;;;;;;;;107564;283;43264;-28
2023/04/14 09:17:17;;;;;;;8.30;6.10;;;;;;;;;;107603;277;38899;-29
2023/04/14 09:19:51;;;;;;;8.90;5.60;;;;;;;;;;107621;283;39856;-29
2023/04/14 09:22:45;;;;;;;8.30;5.50;;;;;;;;;;107577;283;43919;-29
2023/04/14 09:25:20;;;;;;;7.60;5.80;;;;;;;;;;107486;276;175575;-29
2023/04/14 09:27:54;;;;;;;9.80;5.30;;;;;;;;;;107605;283;38637;-29
2023/04/14 09:30:29;;;;;;;8.20;5.40;;;;;;;;;;107600;282;39977;-29
2023/04/14 09:33:06;;;;;;;7.10;4.90;;;;;;;;;;107614;282;45169;-29
2023/04/14 09:35:51;;;;;;;7.00;4.70;;;;;;;;;;107559;276;42143;-29
2023/04/14 09:38:38;;;;;;;7.10;4.60;;;;;;;;;;107173;283;517235;-29
2023/04/14 09:41:17;;;;;;;7.10;4.60;;;;;;;;;;107463;283;175541;-29
2023/04/14 09:43:52;;;;;;;6.70;4.50;;;;;;;;;;107623;283;44186;-29
2023/04/14 09:46:26;;;;;;;6.20;4.50;;;;;;;;;;107603;283;43605;-29
2023/04/14 09:49:02;;;;;;;6.40;4.30;;;;;;;;;;107628;284;39900;-29
2023/04/14 09:51:37;;;;;;;8.50;4.30;;;;;;;;;;107625;284;40861;-29
2023/04/14 09:54:10;;;;;;;6.30;4.10;;;;;;;;;;107623;284;43165;-29
2023/04/14 09:56:48;;;;;;;7.40;4.30;;;;;;;;;;107563;284;42254;-29
2023/04/14 09:59:33;;;;;;;6.30;4.10;;;;;;;;;;107645;282;38797;-29
2023/04/14 10:02:09;;;;;;;6.20;4.00;;;;;;;;;;107603;277;39740;-29
2023/04/14 10:04:45;;;;;;;6.00;4.10;;;;;;;;;;107610;284;43061;-29
2023/04/14 10:07:21;;;;;;;5.20;3.90;;;;;;;;;;107573;281;49344;-29
2023/04/14 10:09:55;;;;;;;5.70;3.80;;;;;;;;;;107623;277;38786;-29
2023/04/14 10:12:30;;;;;;;6.40;3.90;;;;;;;;;;107594;277;39667;-29
2023/04/14 10:15:05;;;;;;;5.50;3.80;;;;;;;;;;107562;277;44274;-30
2023/04/14 10:17:41;;;;;;;6.10;3.80;;;;;;;;;;107597;284;48777;-30
2023/04/14 10:20:16;;;;;;;5.10;3.60;;;;;;;;;;107593;284;40036;-29
2023/04/14 10:22:52;;;;;;;5.60;3.40;;;;;;;;;;107637;277;39772;-29
2023/04/14 10:25:28;;;;;;;5.80;3.70;;;;;;;;;;107582;276;42903;-29
2023/04/14 10:28:03;;;;;;;5.40;3.60;;;;;;;;;;107620;276;48317;-30
2023/04/14 10:30:38;;;;;;;5.80;3.40;;;;;;;;;;107587;284;39068;-29
2023/04/14 10:33:13;;;;;;;5.50;3.60;;;;;;;;;;107656;276;39676;-29
2023/04/14 10:35:54;;;;;;;5.40;3.30;;;;;;;;;;107583;284;43022;-30
2023/04/14 10:38:42;;;;;;;5.30;3.30;;;;;;;;;;107646;277;48933;-30
2023/04/14 10:41:16;;;;;;;5.60;3.50;;;;;;;;;;107678;277;38771;-30
2023/04/14 10:43:49;;;;;;;5.00;3.20;;;;;;;;;;107649;276;40874;-30
2023/04/14 10:46:23;;;;;;;5.50;3.30;;;;;;;;;;107529;277;44362;-30
2023/04/14 10:48:59;;;;;;;5.20;3.50;;;;;;;;;;107636;277;43298;-29
2023/04/14 10:51:37;;;;;;;5.10;3.20;;;;;;;;;;107669;282;38510;-29
2023/04/14 10:54:22;;;;;;;5.00;3.00;;;;;;;;;;107683;277;39839;-30
2023/04/14 10:57:13;;;;;;;4.80;3.10;;;;;;;;;;107594;276;42857;-29
2023/04/14 10:59:48;;;;;;;5.20;3.10;;;;;;;;;;107643;282;42467;-29
2023/04/14 11:02:34;;;;;;;4.70;3.00;;;;;;;;;;107647;282;39927;-29
2023/04/14 11:05:11;;;;;;;4.70;2.90;;;;;;;;;;107620;277;39726;-29
2023/04/14 11:07:51;;;;;;;5.10;2.90;;;;;;;;;;107494;277;175513;-29
2023/04/14 11:10:34;;;;;;;5.00;3.10;;;;;;;;;;107636;282;42365;-29
2023/04/14 11:13:13;;;;;;;4.40;2.80;;;;;;;;;;107663;277;38920;-29
2023/04/14 11:15:57;;;;;;;4.60;2.70;;;;;;;;;;107645;284;40764;-29
2023/04/14 11:18:42;;;;;;;4.70;2.90;;;;;;;;;;107571;282;42983;-29
2023/04/14 11:21:19;;;;;;;4.90;2.70;;;;;;;;;;107635;282;44450;-29
2023/04/14 11:23:53;;;;;;;5.50;2.90;;;;;;;;;;107657;277;38906;-29
2023/04/14 11:26:28;;;;;;;4.50;2.60;;;;;;;;;;107626;282;39797;-30
2023/04/14 11:29:10;;;;;;;4.60;2.70;;;;;;;;;;107514;277;175550;-29
2023/04/14 11:31:44;;;;;;;4.90;2.70;;;;;;;;;;107649;277;42254;-29
2023/04/14 11:34:25;;;;;;;4.70;2.60;;;;;;;;;;107622;282;38568;-29
2023/04/14 11:37:01;;;;;;;4.00;2.40;;;;;;;;;;107650;277;39424;-29
2023/04/14 11:39:37;;;;;;;4.10;2.50;;;;;;;;;;107586;277;49295;-29
2023/04/14 11:42:13;;;;;;;4.40;2.40;;;;;;;;;;107637;282;42246;-29
2023/04/14 11:44:47;;;;;;;4.80;2.80;;;;;;;;;;107628;277;40869;-29
2023/04/14 11:47:26;;;;;;;4.60;2.90;;;;;;;;;;107607;277;39709;-29
2023/04/14 11:50:04;;;;;;;4.60;2.90;;;;;;;;;;107714;277;49294;-29
2023/04/14 11:52:43;;;;;;;4.20;2.50;;;;;;;;;;107621;277;42314;-30
2023/04/14 11:55:17;;;;;;;4.40;2.80;;;;;;;;;;107626;277;38945;-29
2023/04/14 11:57:54;;;;;;;4.70;2.70;;;;;;;;;;107618;280;39739;-29
2023/04/14 12:00:28;;;;;;;4.50;2.80;;;;;;;;;;107630;277;51223;-29
2023/04/14 12:03:07;;;;;;;4.20;2.80;;;;;;;;;;107632;277;42178;-29
2023/04/14 12:05:41;;;;;;;4.50;2.70;;;;;;;;;;107630;284;38885;-29
2023/04/14 12:08:18;;;;;;;4.50;2.50;;;;;;;;;;107456;283;175578;-29
2023/04/14 12:10:52;;;;;;;3.80;2.20;;;;;;;;;;107626;277;43203;-29
2023/04/14 12:13:28;;;;;;;4.50;2.50;;;;;;;;;;107655;282;43260;-29
2023/04/14 12:16:02;;;;;;;4.20;2.50;;;;;;;;;;107514;277;192032;-29
2023/04/14 12:18:35;;;;;;;4.00;2.40;;;;;;;;;;107587;277;39725;-29
2023/04/14 12:21:16;;;;;;;3.90;2.40;;;;;;;;;;107624;277;43218;-29
2023/04/14 12:23:50;;;;;;;4.00;2.10;;;;;;;;;;107514;277;175564;-29
2023/04/14 12:26:27;;;;;;;3.80;2.00;;;;;;;;;;107632;277;38864;-29
2023/04/14 12:29:02;;;;;;;4.10;2.30;;;;;;;;;;107595;284;39891;-29
2023/04/14 12:31:45;;;;;;;4.50;2.40;;;;;;;;;;107633;277;43028;-30
2023/04/14 12:34:28;;;;;;;4.10;2.20;;;;;;;;;;107621;282;42268;-29
2023/04/14 12:37:08;;;;;;;3.70;2.10;;;;;;;;;;107635;277;38875;-29
2023/04/14 12:40:00;;;;;;;4.00;2.10;;;;;;;;;;107575;284;39853;-29
2023/04/14 12:42:48;;;;;;;3.80;2.00;;;;;;;;;;107641;284;44215;-30
2023/04/14 12:45:22;;;;;;;3.50;1.90;;;;;;;;;;107665;277;42263;-29
2023/04/14 12:47:58;;;;;;;3.80;1.90;;;;;;;;;;107638;277;39934;-29
2023/04/14 12:50:33;;;;;;;3.40;1.80;;;;;;;;;;107598;277;39863;-29
2023/04/14 12:53:28;;;;;;;4.40;1.90;;;;;;;;;;107601;284;43200;-29
2023/04/14 12:56:16;;;;;;;4.00;1.90;;;;;;;;;;107650;288;43671;-29
2023/04/14 12:58:50;;;;;;;3.50;1.90;;;;;;;;;;107673;277;38741;-29
2023/04/14 13:01:26;;;;;;;3.90;2.00;;;;;;;;;;107595;282;40930;-29
2023/04/14 13:04:05;;;;;;;3.40;1.70;;;;;;;;;;107615;277;44070;-29
2023/04/14 13:06:39;;;;;;;3.80;2.00;;;;;;;;;;107620;277;43608;-29
2023/04/14 13:09:13;;;;;;;3.50;1.80;;;;;;;;;;107649;282;39918;-29
2023/04/14 13:11:47;;;;;;;3.50;1.70;;;;;;;;;;107626;283;46337;-29
2023/04/14 13:14:21;;;;;;;3.20;1.60;;;;;;;;;;107610;277;44062;-29
2023/04/14 13:16:55;;;;;;;3.10;1.50;;;;;;;;;;107630;284;42063;-29
2023/04/14 13:19:28;;;;;;;3.60;1.60;;;;;;;;;;107617;277;39894;-30
2023/04/14 13:22:02;;;;;;;3.60;1.80;;;;;;;;;;107490;277;175544;-29
2023/04/14 13:24:37;;;;;;;4.00;1.60;;;;;;;;;;107624;282;44218;-29
2023/04/14 13:27:11;;;;;;;3.40;1.70;;;;;;;;;;107622;277;43233;-30
2023/04/14 13:29:45;;;;;;;3.20;1.60;;;;;;;;;;107612;284;38526;-29
2023/04/14 13:32:19;;;;;;;3.10;1.60;;;;;;;;;;107590;277;45527;-30
2023/04/14 13:34:53;;;;;;;3.40;1.70;;;;;;;;;;107636;277;43031;-29
2023/04/14 13:37:26;;;;;;;3.30;1.60;;;;;;;;;;107637;277;42491;-30
2023/04/14 13:40:00;;;;;;;3.60;1.70;;;;;;;;;;107525;277;175189;-30
2023/04/14 13:42:34;;;;;;;3.60;1.60;;;;;;;;;;107596;277;45764;-29
2023/04/14 13:45:11;;;;;;;3.40;1.80;;;;;;;;;;107646;277;42898;-29
2023/04/14 13:47:47;;;;;;;3.40;1.60;;;;;;;;;;107635;284;42130;-29
2023/04/14 13:50:23;;;;;;;3.60;1.90;;;;;;;;;;107631;277;38549;-30
2023/04/14 13:52:57;;;;;;;3.20;1.50;;;;;;;;;;107483;277;175533;-30
2023/04/14 13:55:32;;;;;;;3.20;1.50;;;;;;;;;;107623;277;42995;-29
2023/04/14 13:58:05;;;;;;;3.50;1.50;;;;;;;;;;107599;284;42161;-29
2023/04/14 14:00:39;;;;;;;3.20;1.60;;;;;;;;;;107615;284;38713;-29
2023/04/14 14:03:12;;;;;;;3.20;1.60;;;;;;;;;;107494;277;175529;-29
2023/04/14 14:05:46;;;;;;;2.90;1.50;;;;;;;;;;107630;277;42872;-30
2023/04/14 14:08:20;;;;;;;3.00;1.60;;;;;;;;;;107614;277;42159;-30
2023/04/14 14:10:54;;;;;;;3.10;1.60;;;;;;;;;;107640;277;38805;-30
2023/04/14 14:13:28;;;;;;;3.40;1.60;;;;;;;;;;107622;277;46281;-30
2023/04/14 14:16:02;;;;;;;3.70;1.80;;;;;;;;;;107633;277;44068;-29
2023/04/14 14:18:37;;;;;;;3.90;1.70;;;;;;;;;;107624;277;42256;-30
2023/04/14 14:21:13;;;;;;;3.20;1.60;;;;;;;;;;107620;277;40010;-30
2023/04/14 14:23:47;;;;;;;3.20;1.60;;;;;;;;;;107568;277;45636;-30
2023/04/14 14:26:21;;;;;;;3.90;1.60;;;;;;;;;;107634;282;43019;-30
2023/04/14 14:28:55;;;;;;;3.50;1.60;;;;;;;;;;107609;277;43257;-30
2023/04/14 14:31:29;;;;;;;3.10;1.50;;;;;;;;;;107626;282;39119;-30
2023/04/14 14:34:03;;;;;;;3.70;1.50;;;;;;;;;;107575;282;46840;-30
2023/04/14 14:36:37;;;;;;;3.70;1.60;;;;;;;;;;107498;282;175207;-30
2023/04/14 14:39:10;;;;;;;3.10;1.50;;;;;;;;;;107616;277;43290;-30
2023/04/14 14:41:44;;;;;;;3.20;1.60;;;;;;;;;;107631;277;39112;-30
2023/04/14 14:44:18;;;;;;;3.40;1.60;;;;;;;;;;107575;277;46694;-30
2023/04/14 14:46:51;;;;;;;2.90;1.40;;;;;;;;;;107623;277;42886;-30
2023/04/14 14:49:25;;;;;;;3.80;1.60;;;;;;;;;;107501;282;175539;-30
2023/04/14 14:52:00;;;;;;;2.80;1.40;;;;;;;;;;107625;277;39014;-30
2023/04/14 14:54:34;;;;;;;3.30;1.60;;;;;;;;;;107572;276;45447;-30
2023/04/14 14:57:07;;;;;;;2.80;1.30;;;;;;;;;;107611;277;42964;-30
2023/04/14 14:59:41;;;;;;;3.00;1.60;;;;;;;;;;107619;277;43287;-30
2023/04/14 15:02:14;;;;;;;3.20;1.50;;;;;;;;;;107603;282;38757;-30
2023/04/14 15:04:49;;;;;;;3.10;1.60;;;;;;;;;;107594;277;46434;-30
2023/04/14 15:07:22;;;;;;;3.00;1.50;;;;;;;;;;106937;277;895080;-30
2023/04/14 15:09:56;;;;;;;2.80;1.50;;;;;;;;;;107606;282;42203;-30
2023/04/14 15:12:29;;;;;;;3.80;1.80;;;;;;;;;;107600;282;38793;-30
2023/04/14 15:15:03;;;;;;;3.50;1.70;;;;;;;;;;107594;277;46698;-30
2023/04/14 15:17:37;;;;;;;4.70;2.00;;;;;;;;;;107618;277;44111;-30
2023/04/14 15:20:14;;;;;;;4.20;2.20;;;;;;;;;;107644;284;43232;-30
2023/04/14 15:22:47;;;;;;;3.30;1.90;;;;;;;;;;107648;277;38774;-30
2023/04/14 15:25:21;;;;;;;3.70;1.80;;;;;;;;;;107600;277;47996;-30
2023/04/14 15:27:55;;;;;;;4.40;1.90;;;;;;;;;;107634;277;42880;-30
2023/04/14 15:30:29;;;;;;;4.50;1.90;;;;;;;;;;107587;277;42494;-30
2023/04/14 15:33:02;;;;;;;5.30;2.30;;;;;;;;;;107639;277;40091;-30
2023/04/14 15:35:38;;;;;;;5.40;2.40;;;;;;;;;;107566;277;46523;-31
2023/04/14 15:38:12;;;;;;;4.40;2.20;;;;;;;;;;107643;277;43034;-30
2023/04/14 15:40:46;;;;;;;5.50;2.90;;;;;;;;;;107611;277;42127;-30